createdAt,value
2023-04-02T00:01:09.846Z,22.30
2023-04-02T00:04:01.333Z,22.00
2023-04-02T00:07:10.357Z,20.10
2023-04-02T00:10:00.918Z,23.10
2023-04-02T00:13:06.897Z,24.80
2023-04-02T00:15:57.621Z,22.80
2023-04-02T00:18:53.116Z,22.20
2023-04-02T00:21:43.136Z,21.90
2023-04-02T00:24:52.705Z,20.40
2023-04-02T00:27:54.111Z,21.10
2023-04-02T00:30:51.672Z,19.80
2023-04-02T00:34:09.248Z,18.70
2023-04-02T00:37:28.707Z,20.00
2023-04-02T00:40:55.989Z,20.10
2023-04-02T00:44:26.324Z,18.60
2023-04-02T00:47:35.496Z,19.70
2023-04-02T00:50:30.938Z,19.30
2023-04-02T00:53:32.083Z,18.80
2023-04-02T00:56:42.512Z,15.50
2023-04-02T00:59:57.380Z,17.60
2023-04-02T01:03:44.199Z,18.60
2023-04-02T01:08:11.271Z,19.20
2023-04-02T01:12:30.857Z,18.50
2023-04-02T01:16:34.680Z,17.90
2023-04-02T01:20:36.883Z,17.10
2023-04-02T01:24:36.703Z,18.30
2023-04-02T01:29:32.694Z,18.60
2023-04-02T01:33:56.049Z,15.90
2023-04-02T01:38:21.579Z,17.40
2023-04-02T01:42:21.428Z,16.30
2023-04-02T01:46:20.542Z,14.70
2023-04-02T01:50:20.434Z,16.60
2023-04-02T01:55:12.366Z,16.80
2023-04-02T01:59:11.204Z,16.00
2023-04-02T02:04:29.472Z,16.20
2023-04-02T02:08:29.250Z,14.80
2023-04-02T02:12:29.409Z,14.60
2023-04-02T02:16:29.346Z,14.30
2023-04-02T02:21:03.602Z,16.20
2023-04-02T02:25:03.462Z,15.40
2023-04-02T02:29:03.654Z,15.40
2023-04-02T02:33:00.488Z,21.30
2023-04-02T02:37:09.771Z,22.40
2023-04-02T02:41:08.438Z,16.90
2023-04-02T02:45:08.618Z,20.20
2023-04-02T02:52:09.404Z,17.70
2023-04-02T02:56:08.152Z,19.60
2023-04-02T03:00:03.357Z,21.50
2023-04-02T03:03:55.499Z,18.80
2023-04-02T03:08:35.113Z,18.30
2023-04-02T03:12:33.632Z,17.10
2023-04-02T03:16:31.746Z,18.40
2023-04-02T03:20:42.629Z,17.70
2023-04-02T03:25:12.162Z,16.70
2023-04-02T03:29:12.105Z,14.20
2023-04-02T03:33:12.184Z,20.10
2023-04-02T03:37:18.080Z,21.80
2023-04-02T03:41:52.743Z,20.30
2023-04-02T03:45:52.570Z,21.50
2023-04-02T03:49:55.657Z,19.50
2023-04-02T03:58:33.258Z,18.80
2023-04-02T04:02:56.777Z,21.70
2023-04-02T04:07:20.151Z,19.80
2023-04-02T04:11:42.956Z,20.80
2023-04-02T04:16:24.769Z,21.70
2023-04-02T04:20:54.204Z,22.70
2023-04-02T04:25:19.432Z,25.60
2023-04-02T04:29:43.496Z,27.90
2023-04-02T04:34:10.058Z,20.00
2023-04-02T04:38:34.061Z,14.60
2023-04-02T04:42:57.554Z,11.70
2023-04-02T04:47:35.759Z,12.30
2023-04-02T04:51:35.866Z,8.60
2023-04-02T04:55:53.728Z,9.50
2023-04-02T04:59:53.896Z,9.60
2023-04-02T05:04:17.839Z,9.10
2023-04-02T05:08:24.218Z,9.20
2023-04-02T05:12:33.839Z,10.50
2023-04-02T05:16:35.150Z,14.60
2023-04-02T05:20:38.804Z,11.90
2023-04-02T05:24:38.963Z,10.70
2023-04-02T05:28:41.778Z,7.50
2023-04-02T05:34:14.992Z,7.50
2023-04-02T05:38:15.017Z,6.30
2023-04-02T05:42:11.857Z,4.90
2023-04-02T05:46:11.850Z,6.00
2023-04-02T05:50:10.859Z,4.50
2023-04-02T05:54:04.969Z,5.10
2023-04-02T05:58:31.833Z,3.90
2023-04-02T06:05:05.663Z,3.30
2023-04-02T06:09:36.141Z,3.20
2023-04-02T06:18:34.908Z,2.90
2023-04-02T06:23:04.186Z,1.30
2023-04-02T06:27:27.645Z,1.20
2023-04-02T06:31:56.119Z,2.40
2023-04-02T06:35:56.358Z,1.80
2023-04-02T06:50:12.572Z,1.10
2023-04-02T06:54:36.671Z,2.00
2023-04-02T06:59:00.812Z,1.40
2023-04-02T07:07:57.733Z,2.00
2023-04-02T07:12:26.854Z,1.70
2023-04-02T07:17:08.306Z,1.70
2023-04-02T07:24:39.489Z,1.60
2023-04-02T07:28:38.259Z,1.40
2023-04-02T07:33:15.995Z,2.10
2023-04-02T07:37:45.341Z,2.70
2023-04-02T07:41:49.399Z,2.70
2023-04-02T07:45:49.301Z,1.70
2023-04-02T07:49:49.370Z,3.20
2023-04-02T07:54:27.984Z,3.60
2023-04-02T07:59:10.447Z,4.50
2023-04-02T08:03:33.998Z,5.20
2023-04-02T08:07:57.159Z,3.60
2023-04-02T08:16:12.254Z,2.20
2023-04-02T08:20:17.120Z,3.80
2023-04-02T08:39:17.667Z,1.40
2023-04-02T08:53:48.202Z,5.20
2023-04-02T09:02:14.161Z,3.10
2023-04-02T09:09:05.698Z,4.50
2023-04-02T09:18:19.566Z,3.00
2023-04-02T09:33:46.978Z,3.20
2023-04-02T09:38:36.589Z,4.60
2023-04-02T09:42:51.811Z,2.60
2023-04-02T09:51:04.840Z,3.30
2023-04-02T09:55:15.574Z,4.60
2023-04-02T09:59:25.752Z,6.60
2023-04-02T10:03:32.674Z,7.90
2023-04-02T10:09:22.032Z,9.70
2023-04-02T10:18:05.721Z,8.90
2023-04-02T10:22:09.482Z,5.70
2023-04-02T10:26:01.545Z,4.60
2023-04-02T10:34:34.022Z,4.90
2023-04-02T10:38:36.812Z,4.60
2023-04-02T10:42:54.972Z,4.60
2023-04-02T10:48:35.422Z,3.70
2023-04-02T10:52:58.722Z,4.20
2023-04-02T10:56:58.843Z,2.50
2023-04-02T11:01:01.672Z,4.00
2023-04-02T11:05:02.098Z,3.00
2023-04-02T11:09:49.875Z,5.40
2023-04-02T11:13:48.025Z,4.50
2023-04-02T11:17:45.903Z,4.40
2023-04-02T11:21:58.813Z,4.30
2023-04-02T11:26:14.629Z,7.70
2023-04-02T11:30:45.669Z,4.40
2023-04-02T11:35:23.113Z,5.20
2023-04-02T11:39:31.131Z,4.60
2023-04-02T11:43:35.246Z,6.50
2023-04-02T11:47:50.148Z,7.20
2023-04-02T11:56:29.669Z,10.20
2023-04-02T12:00:32.257Z,20.90
2023-04-02T12:04:14.446Z,20.90
2023-04-02T12:08:57.896Z,7.40
2023-04-02T12:12:59.742Z,7.00
2023-04-02T12:25:25.696Z,4.60
2023-04-02T12:29:25.578Z,5.30
2023-04-02T12:33:29.660Z,5.70
2023-04-02T12:37:58.953Z,7.60
2023-04-02T12:42:00.037Z,6.40
2023-04-02T12:50:14.054Z,6.60
2023-04-02T12:54:15.937Z,9.00
2023-04-02T12:58:15.988Z,6.80
2023-04-02T13:02:26.038Z,6.30
2023-04-02T13:08:13.270Z,6.30
2023-04-02T13:12:19.220Z,8.60
2023-04-02T13:20:59.215Z,7.80
2023-04-02T13:29:59.769Z,10.00
2023-04-02T13:34:29.763Z,8.00
2023-04-02T13:38:56.773Z,10.60
2023-04-02T13:43:00.701Z,7.80
2023-04-02T13:47:08.732Z,8.90
2023-04-02T13:51:13.705Z,7.80
2023-04-02T13:55:38.202Z,9.80
2023-04-02T14:00:07.186Z,8.90
2023-04-02T14:04:51.132Z,7.60
2023-04-02T14:08:51.707Z,7.10
2023-04-02T14:12:57.806Z,4.80
2023-04-02T14:16:54.769Z,7.40
2023-04-02T14:21:20.162Z,5.90
2023-04-02T14:30:30.055Z,6.20
2023-04-02T14:35:01.244Z,7.20
2023-04-02T14:39:01.331Z,6.20
2023-04-02T14:43:01.213Z,5.30
2023-04-02T14:47:01.353Z,6.50
2023-04-02T14:51:35.651Z,5.50
2023-04-02T14:55:36.740Z,5.00
2023-04-02T14:59:43.605Z,4.60
2023-04-02T15:03:47.029Z,5.80
2023-04-02T15:08:22.787Z,4.90
2023-04-02T15:12:25.887Z,5.60
2023-04-02T15:16:24.798Z,6.00
2023-04-02T15:20:24.891Z,5.90
2023-04-02T15:25:10.360Z,4.90
2023-04-02T15:29:27.740Z,4.60
2023-04-02T15:33:15.293Z,5.90
2023-04-02T15:37:15.304Z,4.30
2023-04-02T15:41:18.274Z,5.80
2023-04-02T15:45:28.482Z,5.70
2023-04-02T15:49:34.271Z,5.30
2023-04-02T15:55:31.058Z,9.10
2023-04-02T16:07:59.532Z,4.70
2023-04-02T16:11:58.597Z,5.50
2023-04-02T16:16:51.155Z,5.50
2023-04-02T16:20:50.987Z,5.90
2023-04-02T16:24:49.128Z,6.20
2023-04-02T16:28:53.196Z,6.30
2023-04-02T16:32:53.160Z,6.70
2023-04-02T16:36:52.169Z,5.60
2023-04-02T16:41:07.059Z,4.70
2023-04-02T16:47:33.594Z,6.90
2023-04-02T16:52:04.086Z,6.50
2023-04-02T16:56:52.892Z,6.70
2023-04-02T17:00:54.502Z,5.90
2023-04-02T17:04:52.615Z,5.20
2023-04-02T17:11:53.417Z,14.40
2023-04-02T17:16:28.096Z,10.80
2023-04-02T17:20:27.250Z,7.50
2023-04-02T17:24:44.078Z,6.30
2023-04-02T17:28:44.411Z,6.40
2023-04-02T17:33:20.525Z,5.10
2023-04-02T17:37:34.740Z,4.30
2023-04-02T17:41:38.520Z,4.60
2023-04-02T17:45:17.758Z,4.60
2023-04-02T17:49:48.138Z,6.70
2023-04-02T17:54:15.579Z,5.70
2023-04-02T17:58:49.875Z,5.10
2023-04-02T18:03:17.731Z,6.00
2023-04-02T18:07:54.664Z,5.90
2023-04-02T18:12:34.343Z,5.40
2023-04-02T18:17:06.708Z,6.90
2023-04-02T18:21:36.295Z,6.50
2023-04-02T18:26:08.610Z,7.10
2023-04-02T18:30:38.839Z,7.70
2023-04-02T18:35:03.243Z,7.80
2023-04-02T18:39:28.408Z,5.20
2023-04-02T18:43:47.265Z,5.60
2023-04-02T18:47:56.513Z,4.20
2023-04-02T18:51:48.254Z,5.20
2023-04-02T18:56:12.074Z,5.40
2023-04-02T19:00:11.505Z,19.90
2023-04-02T19:04:11.735Z,23.00
2023-04-02T19:08:11.575Z,12.70
2023-04-02T19:12:47.569Z,9.70
2023-04-02T19:17:10.939Z,10.10
2023-04-02T19:22:07.700Z,9.80
2023-04-02T19:26:07.557Z,9.70
2023-04-02T19:30:10.557Z,7.40
2023-04-02T19:33:46.768Z,7.40
2023-04-02T19:37:50.572Z,7.80
2023-04-02T19:46:05.810Z,6.70
2023-04-02T19:51:57.733Z,5.90
2023-04-02T20:00:20.298Z,7.60
2023-04-02T20:04:20.078Z,5.80
2023-04-02T20:16:40.364Z,20.30
2023-04-02T20:20:39.026Z,5.50
2023-04-02T20:24:42.045Z,4.70
2023-04-02T20:29:09.531Z,6.10
2023-04-02T20:33:33.770Z,5.10
2023-04-02T20:37:56.737Z,6.30
2023-04-02T20:42:19.915Z,6.00
2023-04-02T20:46:44.243Z,5.90
2023-04-02T20:51:08.421Z,6.60
2023-04-02T20:55:54.940Z,5.00
2023-04-02T21:00:21.222Z,5.30
2023-04-02T21:04:44.607Z,4.20
2023-04-02T21:09:08.575Z,4.30
2023-04-02T21:13:32.104Z,3.50
2023-04-02T21:17:55.655Z,3.40
2023-04-02T21:22:21.570Z,3.70
2023-04-02T21:26:49.109Z,4.30
2023-04-02T21:31:12.500Z,4.10
2023-04-02T21:35:39.799Z,4.20
2023-04-02T21:40:18.810Z,4.80
2023-04-02T21:45:08.467Z,4.20
2023-04-02T21:49:49.632Z,3.80
2023-04-02T21:54:27.996Z,4.10
2023-04-02T22:13:22.667Z,4.60
2023-04-02T22:18:18.049Z,4.90
2023-04-02T22:32:48.657Z,4.20
2023-04-02T22:37:11.815Z,4.70
2023-04-02T22:41:50.618Z,4.30
2023-04-02T22:46:22.045Z,5.90
2023-04-02T23:05:10.912Z,5.00
2023-04-02T23:09:59.369Z,4.50
